Croftville, Minnesota
Current Conditions -  °F | °C
As of 5:33 AM on Tuesday 21 Oct 2014 (Local Time) from KCKC Reporting Station
Overcast Overcast  
Wind Chill: 30°   Ceiling: 1100
Heat Index: 34°   Visibility: 10mi
Dew Point: 27°   Wind: 5mph
Humidity: 75%   Direction: 50°NE
Pressure: 30.21"   Gusts: NA
Location:  47.8874°N, 90.328°W
Report Text: KCKC 211033Z AUTO 05004KT 10SM OVC011 01/M03 A3021 RMK AO2
Loading
Personal Weather Stations






























Interactive Weather Map
Tropical Storm Tracking
New forecast layout! Learn more

10-Day Weather Forecast

Advertisements
Track Severe Weather on mobile